Terminal Aerodrome Forecast
Issued by NWS

Current Version | Previous Version | Graphics & Text | Print | Product List | Glossary On
Versions: 1 2 3 4 5 6 7 8 9 10 11 12 13 14 15 16 17 18 19 20 21
000
FTUS41 KRNK 290520
TAFLWB
TAF
KLWB 290520Z 2906/3006 00000KT 5SM BR SKC
     FM290800 00000KT 1/4SM FG OVC002
     FM291230 VRB03KT P6SM FEW050
     FM291900 VRB03KT P6SM BKN050=

USA.gov is the U.S. government's official web portal to all federal, state and local government web resources and services.